createdAt,value
2023-04-27T00:03:42.526Z,4.12
2023-04-27T00:08:42.327Z,4.06
2023-04-27T00:13:42.337Z,4
2023-04-27T00:18:42.340Z,3.93
2023-04-27T00:23:42.324Z,3.81
2023-04-27T00:28:42.314Z,3.75
2023-04-27T00:33:42.315Z,3.93
2023-04-27T00:38:42.301Z,4
2023-04-27T00:43:42.305Z,4.12
2023-04-27T00:48:42.303Z,4
2023-04-27T00:53:42.303Z,4.18
2023-04-27T00:58:42.299Z,4.31
2023-04-27T01:03:42.370Z,4.25
2023-04-27T01:08:42.277Z,4.06
2023-04-27T01:13:42.294Z,4.06
2023-04-27T01:18:42.275Z,4.18
2023-04-27T01:23:42.281Z,4.12
2023-04-27T01:28:42.270Z,4.12
2023-04-27T01:33:42.302Z,4.06
2023-04-27T01:38:42.293Z,4
2023-04-27T01:43:42.279Z,4.12
2023-04-27T01:48:42.320Z,4
2023-04-27T01:53:42.266Z,4.18
2023-04-27T01:58:42.265Z,4.12
2023-04-27T02:03:42.422Z,4.31
2023-04-27T02:08:42.253Z,4.12
2023-04-27T02:13:42.244Z,4.25
2023-04-27T02:18:42.244Z,4.43
2023-04-27T02:23:42.230Z,4.31
2023-04-27T02:28:42.265Z,4.18
2023-04-27T02:33:42.248Z,4.37
2023-04-27T02:38:42.227Z,4.5
2023-04-27T02:43:42.220Z,4.43
2023-04-27T02:48:42.234Z,4.43
2023-04-27T02:53:42.204Z,4.56
2023-04-27T02:58:42.202Z,4.62
2023-04-27T03:03:42.318Z,4.43
2023-04-27T03:08:42.191Z,4.43
2023-04-27T03:13:42.292Z,4.37
2023-04-27T03:18:42.189Z,4.31
2023-04-27T03:23:42.205Z,4.43
2023-04-27T03:28:42.179Z,4.25
2023-04-27T03:33:42.176Z,4.12
2023-04-27T03:38:42.183Z,4
2023-04-27T03:43:42.181Z,4
2023-04-27T03:48:42.172Z,3.93
2023-04-27T03:53:42.175Z,4
2023-04-27T03:58:42.170Z,3.93
2023-04-27T04:03:42.243Z,3.56
2023-04-27T04:08:42.157Z,3.5
2023-04-27T04:13:42.153Z,3.43
2023-04-27T04:18:42.143Z,3.56
2023-04-27T04:23:42.167Z,3.87
2023-04-27T04:28:42.175Z,4
2023-04-27T04:33:42.152Z,4
2023-04-27T04:38:42.135Z,4
2023-04-27T04:43:42.131Z,4.31
2023-04-27T04:48:42.125Z,4.68
2023-04-27T04:53:42.128Z,5.06
2023-04-27T04:58:42.120Z,5.62
2023-04-27T05:03:42.192Z,6.37
2023-04-27T05:08:42.113Z,6.93
2023-04-27T05:13:42.129Z,7.68
2023-04-27T05:18:42.142Z,8.75
2023-04-27T05:23:42.129Z,8.68
2023-04-27T05:28:42.122Z,9
2023-04-27T05:33:42.141Z,8.43
2023-04-27T05:38:42.122Z,8
2023-04-27T05:43:42.123Z,8.12
2023-04-27T05:48:42.079Z,7.81
2023-04-27T05:58:42.096Z,8.06
2023-04-27T06:03:42.165Z,8
2023-04-27T06:08:42.069Z,8.06
2023-04-27T06:13:42.082Z,8.43
2023-04-27T06:18:42.046Z,8.18
2023-04-27T06:23:42.085Z,8.12
2023-04-27T06:28:42.048Z,8.31
2023-04-27T06:33:42.102Z,8.31
2023-04-27T06:38:42.052Z,8.5
2023-04-27T06:43:42.028Z,8.31
2023-04-27T06:48:42.023Z,9.12
2023-04-27T06:53:42.027Z,9.43
2023-04-27T06:58:42.030Z,9.25
2023-04-27T07:03:42.141Z,9.56
2023-04-27T07:08:42.003Z,9.31
2023-04-27T07:13:42.008Z,9.62
2023-04-27T07:18:43.386Z,9.81
2023-04-27T07:23:41.995Z,10.31
2023-04-27T07:28:41.994Z,10.56
2023-04-27T07:33:41.981Z,10.25
2023-04-27T07:38:41.985Z,10.68
2023-04-27T07:43:41.959Z,11.25
2023-04-27T07:48:41.948Z,11
2023-04-27T07:53:41.962Z,11.18
2023-04-27T07:58:41.971Z,10.87
2023-04-27T08:03:42.255Z,11.56
2023-04-27T08:08:41.938Z,12
2023-04-27T08:13:41.935Z,11.68
2023-04-27T08:18:41.920Z,11.75
2023-04-27T08:23:41.937Z,12.56
2023-04-27T08:28:41.909Z,12.56
2023-04-27T08:33:41.907Z,13.06
2023-04-27T08:38:41.914Z,12.5
2023-04-27T08:43:41.892Z,12.43
2023-04-27T08:48:41.908Z,12.56
2023-04-27T08:53:41.878Z,12.87
2023-04-27T08:58:41.871Z,13.25
2023-04-27T09:03:41.991Z,13.68
2023-04-27T09:08:41.884Z,14.06
2023-04-27T09:13:41.922Z,13.87
2023-04-27T09:18:41.855Z,13.43
2023-04-27T09:23:41.850Z,13.62
2023-04-27T09:28:41.829Z,13.25
2023-04-27T09:33:41.830Z,13.56
2023-04-27T09:38:41.828Z,14.06
2023-04-27T09:43:41.826Z,13.18
2023-04-27T09:53:41.809Z,13.06
2023-04-27T09:58:41.798Z,13
2023-04-27T10:03:41.871Z,13.31
2023-04-27T10:08:41.786Z,13.43
2023-04-27T10:13:41.778Z,12.75
2023-04-27T10:18:41.771Z,13.12
2023-04-27T10:23:41.785Z,13.12
2023-04-27T10:28:41.764Z,12.56
2023-04-27T10:33:41.772Z,13
2023-04-27T12:23:41.610Z,14.18
2023-04-27T12:43:41.582Z,15.37
2023-04-27T12:53:41.605Z,16.75
2023-04-27T13:13:41.542Z,16.25
2023-04-27T13:28:41.512Z,15
2023-04-27T13:33:41.566Z,15.87
2023-04-27T13:38:41.527Z,16.18
2023-04-27T13:43:41.533Z,16.12
2023-04-27T13:48:41.520Z,16
2023-04-27T13:53:41.512Z,15.56
2023-04-27T13:58:41.486Z,15.68
2023-04-27T14:03:43.247Z,16.18
2023-04-27T14:08:41.506Z,15.93
2023-04-27T14:13:41.536Z,15.56
2023-04-27T14:18:41.511Z,16.06
2023-04-27T14:23:41.467Z,15.93
2023-04-27T14:28:41.473Z,15.12
2023-04-27T14:33:41.479Z,15.25
2023-04-27T14:38:41.451Z,14.93
2023-04-27T14:43:41.455Z,15
2023-04-27T14:48:41.447Z,14.87
2023-04-27T14:53:41.458Z,14.5
2023-04-27T14:58:41.436Z,14.43
2023-04-27T15:03:41.562Z,14.56
2023-04-27T15:08:41.442Z,14.18
2023-04-27T15:13:41.405Z,14.37
2023-04-27T15:18:41.404Z,14.56
2023-04-27T15:23:41.392Z,14.31
2023-04-27T15:28:41.396Z,14.81
2023-04-27T15:33:41.391Z,14.93
2023-04-27T15:38:41.388Z,14.75
2023-04-27T15:43:41.364Z,14.31
2023-04-27T15:48:41.364Z,14.37
2023-04-27T15:53:41.378Z,14.5
2023-04-27T15:58:41.342Z,14.37
2023-04-27T16:03:41.432Z,14.31
2023-04-27T16:08:41.340Z,14.37
2023-04-27T16:13:41.339Z,14.25
2023-04-27T16:18:41.335Z,13.93
2023-04-27T16:23:41.315Z,13.62
2023-04-27T16:28:41.309Z,13.56
2023-04-27T16:33:41.289Z,13.81
2023-04-27T16:38:41.302Z,13.68
2023-04-27T16:43:41.287Z,13.43
2023-04-27T16:48:41.292Z,13.25
2023-04-27T16:53:41.262Z,13.18
2023-04-27T16:58:41.254Z,13.31
2023-04-27T17:03:41.398Z,13.43
2023-04-27T17:08:41.266Z,13.06
2023-04-27T17:13:41.263Z,13
2023-04-27T17:18:41.268Z,12.81
2023-04-27T17:23:41.256Z,12.87
2023-04-27T17:28:41.218Z,12.81
2023-04-27T17:33:41.232Z,12.68
2023-04-27T17:38:41.241Z,12.56
2023-04-27T17:43:41.211Z,12.5
2023-04-27T17:48:41.227Z,12.25
2023-04-27T17:53:41.208Z,12
2023-04-27T17:58:41.210Z,11.68
2023-04-27T18:03:41.264Z,11
2023-04-27T18:08:41.200Z,10.25
2023-04-27T18:13:41.216Z,10
2023-04-27T18:18:41.188Z,9.81
2023-04-27T18:23:41.191Z,9.43
2023-04-27T18:28:41.166Z,9.31
2023-04-27T18:33:41.166Z,9.18
2023-04-27T18:38:41.174Z,9
2023-04-27T18:43:41.152Z,8.75
2023-04-27T18:48:41.152Z,8.75
2023-04-27T18:58:41.142Z,8.5
2023-04-27T19:03:41.321Z,8.31
2023-04-27T19:08:41.148Z,8
2023-04-27T19:13:41.139Z,7.75
2023-04-27T19:18:41.134Z,7.62
2023-04-27T19:23:41.110Z,7.5
2023-04-27T19:28:41.140Z,7.5
2023-04-27T19:33:46.627Z,7.43
2023-04-27T19:38:41.094Z,7.37
2023-04-27T19:43:41.086Z,7.31
2023-04-27T19:48:42.290Z,7.18
2023-04-27T19:53:41.083Z,7.06
2023-04-27T19:58:41.100Z,7
2023-04-27T20:03:41.167Z,7
2023-04-27T20:08:41.081Z,7.12
2023-04-27T20:13:41.096Z,6.87
2023-04-27T20:18:41.077Z,6.81
2023-04-27T20:23:41.065Z,6.81
2023-04-27T20:28:41.090Z,6.68
2023-04-27T20:33:41.061Z,6.68
2023-04-27T20:38:41.053Z,6.62
2023-04-27T20:43:41.045Z,6.56
2023-04-27T20:48:41.054Z,6.5
2023-04-27T20:53:41.026Z,6.43
2023-04-27T20:58:41.036Z,6.18
2023-04-27T21:03:41.112Z,6.12
2023-04-27T21:08:41.021Z,6.18
2023-04-27T21:13:41.053Z,6.25
2023-04-27T21:18:41.031Z,6.25
2023-04-27T21:23:41.036Z,6.25
2023-04-27T21:28:41.010Z,6.12
2023-04-27T21:33:40.989Z,6.06
2023-04-27T21:38:40.996Z,6.25
2023-04-27T21:48:40.984Z,6.12
2023-04-27T21:53:40.981Z,6
2023-04-27T21:58:40.968Z,5.93
2023-04-27T22:03:41.098Z,5.93
2023-04-27T22:08:41.022Z,6.12
2023-04-27T22:13:40.970Z,6.06
2023-04-27T22:18:40.964Z,6.43
2023-04-27T22:23:40.971Z,6.31
2023-04-27T22:28:40.972Z,6.56
2023-04-27T22:33:40.964Z,6.43
2023-04-27T22:38:40.965Z,6.25
2023-04-27T22:43:40.944Z,6.12
2023-04-27T22:48:40.979Z,6.18
2023-04-27T22:53:40.932Z,6.18
2023-04-27T22:58:40.937Z,5.87
2023-04-27T23:03:40.961Z,5.81
2023-04-27T23:08:40.945Z,5.62
2023-04-27T23:13:40.980Z,5.62
2023-04-27T23:18:40.937Z,5.5
2023-04-27T23:23:40.929Z,5.31
2023-04-27T23:28:40.949Z,5.18
2023-04-27T23:33:40.928Z,5.06
2023-04-27T23:38:40.901Z,5.12
2023-04-27T23:43:40.898Z,5.12
2023-04-27T23:48:40.903Z,5.12
2023-04-27T23:53:40.886Z,5.43
2023-04-27T23:58:40.884Z,5.5
